sensor_id;sensor_type;location;lat;lon;timestamp;pressure;altitude;pressure_sealevel;temperature;humidity
20156;BME280;10238;49.556;10.956;2023-03-21T00:00:25;98534.16;;;7.67;100.00
20156;BME280;10238;49.556;10.956;2023-03-21T00:03:13;98532.47;;;7.66;100.00
20156;BME280;10238;49.556;10.956;2023-03-21T00:06:04;98529.84;;;7.66;100.00
20156;BME280;10238;49.556;10.956;2023-03-21T00:08:54;98532.47;;;7.66;100.00
20156;BME280;10238;49.556;10.956;2023-03-21T00:11:41;98530.09;;;7.63;100.00
20156;BME280;10238;49.556;10.956;2023-03-21T00:14:32;98531.91;;;7.62;100.00
20156;BME280;10238;49.556;10.956;2023-03-21T00:17:20;98525.91;;;7.60;100.00
20156;BME280;10238;49.556;10.956;2023-03-21T00:20:10;98524.81;;;7.63;100.00
20156;BME280;10238;49.556;10.956;2023-03-21T00:23:00;98524.66;;;7.64;100.00
20156;BME280;10238;49.556;10.956;2023-03-21T00:25:50;98529.97;;;7.64;100.00
20156;BME280;10238;49.556;10.956;2023-03-21T00:28:40;98532.47;;;7.66;100.00
20156;BME280;10238;49.556;10.956;2023-03-21T00:31:28;98530.53;;;7.68;100.00
20156;BME280;10238;49.556;10.956;2023-03-21T00:34:16;98528.13;;;7.65;100.00
20156;BME280;10238;49.556;10.956;2023-03-21T00:37:22;98523.56;;;7.67;100.00
20156;BME280;10238;49.556;10.956;2023-03-21T00:40:11;98520.19;;;7.65;100.00
20156;BME280;10238;49.556;10.956;2023-03-21T00:43:16;98521.31;;;7.62;100.00
20156;BME280;10238;49.556;10.956;2023-03-21T00:46:08;98518.81;;;7.61;100.00
20156;BME280;10238;49.556;10.956;2023-03-21T00:48:56;98508.47;;;7.58;100.00
20156;BME280;10238;49.556;10.956;2023-03-21T00:51:44;98500.53;;;7.58;100.00
20156;BME280;10238;49.556;10.956;2023-03-21T00:54:37;98497.34;;;7.54;100.00
20156;BME280;10238;49.556;10.956;2023-03-21T00:57:31;98493.13;;;7.52;100.00
20156;BME280;10238;49.556;10.956;2023-03-21T01:00:26;98486.56;;;7.46;100.00
20156;BME280;10238;49.556;10.956;2023-03-21T01:03:16;98489.75;;;7.40;100.00
20156;BME280;10238;49.556;10.956;2023-03-21T01:06:11;98492.78;;;7.36;100.00
20156;BME280;10238;49.556;10.956;2023-03-21T01:08:59;98497.50;;;7.32;100.00
20156;BME280;10238;49.556;10.956;2023-03-21T01:11:48;98490.91;;;7.27;100.00
20156;BME280;10238;49.556;10.956;2023-03-21T01:14:36;98488.56;;;7.24;100.00
20156;BME280;10238;49.556;10.956;2023-03-21T01:17:25;98480.16;;;7.19;100.00
20156;BME280;10238;49.556;10.956;2023-03-21T01:20:13;98480.44;;;7.16;100.00
20156;BME280;10238;49.556;10.956;2023-03-21T01:23:01;98482.63;;;7.11;100.00
20156;BME280;10238;49.556;10.956;2023-03-21T01:25:51;98488.88;;;7.10;100.00
20156;BME280;10238;49.556;10.956;2023-03-21T01:28:42;98488.44;;;7.05;100.00
20156;BME280;10238;49.556;10.956;2023-03-21T01:31:32;98481.72;;;7.01;100.00
20156;BME280;10238;49.556;10.956;2023-03-21T01:34:21;98483.53;;;7.00;100.00
20156;BME280;10238;49.556;10.956;2023-03-21T01:37:14;98486.44;;;6.97;100.00
20156;BME280;10238;49.556;10.956;2023-03-21T01:40:04;98481.53;;;6.93;100.00
20156;BME280;10238;49.556;10.956;2023-03-21T01:42:53;98475.53;;;6.91;100.00
20156;BME280;10238;49.556;10.956;2023-03-21T01:46:21;98478.44;;;6.88;100.00
20156;BME280;10238;49.556;10.956;2023-03-21T01:49:17;98463.81;;;6.84;100.00
20156;BME280;10238;49.556;10.956;2023-03-21T01:52:10;98469.34;;;6.81;100.00
20156;BME280;10238;49.556;10.956;2023-03-21T01:55:13;98474.78;;;6.79;100.00
20156;BME280;10238;49.556;10.956;2023-03-21T01:58:02;98471.53;;;6.76;100.00
20156;BME280;10238;49.556;10.956;2023-03-21T02:00:52;98467.59;;;6.70;100.00
20156;BME280;10238;49.556;10.956;2023-03-21T02:03:45;98461.75;;;6.67;100.00
20156;BME280;10238;49.556;10.956;2023-03-21T02:06:41;98462.97;;;6.62;100.00
20156;BME280;10238;49.556;10.956;2023-03-21T02:09:33;98456.97;;;6.60;100.00
20156;BME280;10238;49.556;10.956;2023-03-21T02:12:23;98457.25;;;6.57;100.00
20156;BME280;10238;49.556;10.956;2023-03-21T02:15:11;98454.00;;;6.54;100.00
20156;BME280;10238;49.556;10.956;2023-03-21T02:18:04;98462.31;;;6.49;100.00
20156;BME280;10238;49.556;10.956;2023-03-21T02:21:17;98452.00;;;6.46;100.00
20156;BME280;10238;49.556;10.956;2023-03-21T02:24:33;98453.22;;;6.42;100.00
20156;BME280;10238;49.556;10.956;2023-03-21T02:27:41;98450.09;;;6.37;100.00
20156;BME280;10238;49.556;10.956;2023-03-21T02:30:41;98455.91;;;6.31;100.00
20156;BME280;10238;49.556;10.956;2023-03-21T02:36:54;98464.56;;;6.22;100.00
20156;BME280;10238;49.556;10.956;2023-03-21T02:39:54;98462.19;;;6.19;100.00
20156;BME280;10238;49.556;10.956;2023-03-21T02:42:52;98458.94;;;6.16;100.00
20156;BME280;10238;49.556;10.956;2023-03-21T02:45:50;98462.69;;;6.13;100.00
20156;BME280;10238;49.556;10.956;2023-03-21T02:48:40;98469.88;;;6.11;100.00
20156;BME280;10238;49.556;10.956;2023-03-21T02:51:38;98466.66;;;6.08;100.00
20156;BME280;10238;49.556;10.956;2023-03-21T02:54:29;98461.50;;;6.06;100.00
20156;BME280;10238;49.556;10.956;2023-03-21T02:57:34;98467.84;;;6.04;100.00
20156;BME280;10238;49.556;10.956;2023-03-21T03:00:31;98459.00;;;6.05;100.00
20156;BME280;10238;49.556;10.956;2023-03-21T03:03:20;98459.81;;;6.05;100.00
20156;BME280;10238;49.556;10.956;2023-03-21T03:06:22;98456.00;;;6.09;100.00
20156;BME280;10238;49.556;10.956;2023-03-21T03:09:21;98457.66;;;6.10;100.00
20156;BME280;10238;49.556;10.956;2023-03-21T03:12:20;98453.09;;;6.12;100.00
20156;BME280;10238;49.556;10.956;2023-03-21T03:15:19;98462.44;;;6.16;100.00
20156;BME280;10238;49.556;10.956;2023-03-21T03:18:18;98463.66;;;6.12;100.00
20156;BME280;10238;49.556;10.956;2023-03-21T03:21:12;98458.94;;;6.16;100.00
20156;BME280;10238;49.556;10.956;2023-03-21T03:24:07;98454.41;;;6.18;100.00
20156;BME280;10238;49.556;10.956;2023-03-21T03:26:59;98454.16;;;6.21;100.00
20156;BME280;10238;49.556;10.956;2023-03-21T03:29:53;98456.41;;;6.25;100.00
20156;BME280;10238;49.556;10.956;2023-03-21T03:32:45;98459.75;;;6.27;100.00
20156;BME280;10238;49.556;10.956;2023-03-21T03:35:35;98448.13;;;6.30;100.00
20156;BME280;10238;49.556;10.956;2023-03-21T03:38:24;98452.56;;;6.29;100.00
20156;BME280;10238;49.556;10.956;2023-03-21T03:41:18;98447.16;;;6.31;100.00
20156;BME280;10238;49.556;10.956;2023-03-21T03:44:08;98451.56;;;6.30;100.00
20156;BME280;10238;49.556;10.956;2023-03-21T03:47:00;98446.41;;;6.29;100.00
20156;BME280;10238;49.556;10.956;2023-03-21T03:49:54;98441.28;;;6.27;100.00
20156;BME280;10238;49.556;10.956;2023-03-21T03:52:47;98445.59;;;6.28;100.00
20156;BME280;10238;49.556;10.956;2023-03-21T03:55:43;98439.59;;;6.26;100.00
20156;BME280;10238;49.556;10.956;2023-03-21T03:58:31;98437.22;;;6.23;100.00
20156;BME280;10238;49.556;10.956;2023-03-21T04:01:31;98440.56;;;6.25;100.00
20156;BME280;10238;49.556;10.956;2023-03-21T04:04:21;98446.09;;;6.22;100.00
20156;BME280;10238;49.556;10.956;2023-03-21T04:07:14;98432.19;;;6.20;100.00
20156;BME280;10238;49.556;10.956;2023-03-21T04:10:03;98432.31;;;6.19;100.00
20156;BME280;10238;49.556;10.956;2023-03-21T04:12:51;98425.50;;;6.16;100.00
20156;BME280;10238;49.556;10.956;2023-03-21T04:15:39;98424.63;;;6.16;100.00
20156;BME280;10238;49.556;10.956;2023-03-21T04:18:27;98428.25;;;6.15;100.00
20156;BME280;10238;49.556;10.956;2023-03-21T04:21:17;98433.78;;;6.12;100.00
20156;BME280;10238;49.556;10.956;2023-03-21T04:24:05;98431.28;;;6.10;100.00
20156;BME280;10238;49.556;10.956;2023-03-21T04:26:53;98433.44;;;6.05;100.00
20156;BME280;10238;49.556;10.956;2023-03-21T04:29:41;98432.00;;;6.01;100.00
20156;BME280;10238;49.556;10.956;2023-03-21T04:32:29;98428.69;;;5.99;100.00
20156;BME280;10238;49.556;10.956;2023-03-21T04:35:19;98423.78;;;5.95;100.00
20156;BME280;10238;49.556;10.956;2023-03-21T04:38:09;98427.47;;;5.92;100.00
20156;BME280;10238;49.556;10.956;2023-03-21T04:40:57;98432.06;;;5.90;100.00
20156;BME280;10238;49.556;10.956;2023-03-21T04:43:46;98420.78;;;5.88;100.00
20156;BME280;10238;49.556;10.956;2023-03-21T04:46:34;98427.03;;;5.87;100.00
20156;BME280;10238;49.556;10.956;2023-03-21T04:49:22;98422.69;;;5.86;100.00
20156;BME280;10238;49.556;10.956;2023-03-21T04:52:10;98427.41;;;5.83;100.00
20156;BME280;10238;49.556;10.956;2023-03-21T04:55:01;98424.25;;;5.78;100.00
20156;BME280;10238;49.556;10.956;2023-03-21T04:57:49;98425.47;;;5.74;100.00
20156;BME280;10238;49.556;10.956;2023-03-21T05:00:37;98420.44;;;5.71;100.00
20156;BME280;10238;49.556;10.956;2023-03-21T05:03:26;98423.19;;;5.69;100.00
20156;BME280;10238;49.556;10.956;2023-03-21T05:06:20;98419.00;;;5.67;100.00
20156;BME280;10238;49.556;10.956;2023-03-21T05:09:08;98424.41;;;5.65;100.00
20156;BME280;10238;49.556;10.956;2023-03-21T05:11:57;98429.69;;;5.65;100.00
20156;BME280;10238;49.556;10.956;2023-03-21T05:14:45;98437.09;;;5.60;100.00
20156;BME280;10238;49.556;10.956;2023-03-21T05:17:33;98435.44;;;5.59;100.00
20156;BME280;10238;49.556;10.956;2023-03-21T05:20:24;98436.41;;;5.58;100.00
20156;BME280;10238;49.556;10.956;2023-03-21T05:23:12;98440.22;;;5.65;100.00
20156;BME280;10238;49.556;10.956;2023-03-21T05:26:05;98439.72;;;5.60;100.00
20156;BME280;10238;49.556;10.956;2023-03-21T05:28:57;98433.41;;;5.63;100.00
20156;BME280;10238;49.556;10.956;2023-03-21T05:31:46;98441.44;;;5.61;100.00
20156;BME280;10238;49.556;10.956;2023-03-21T05:34:34;98439.63;;;5.62;100.00
20156;BME280;10238;49.556;10.956;2023-03-21T05:37:22;98446.81;;;5.60;100.00
20156;BME280;10238;49.556;10.956;2023-03-21T05:40:11;98447.66;;;5.60;100.00
20156;BME280;10238;49.556;10.956;2023-03-21T05:42:59;98447.41;;;5.63;100.00
20156;BME280;10238;49.556;10.956;2023-03-21T05:45:48;98445.25;;;5.68;100.00
20156;BME280;10238;49.556;10.956;2023-03-21T05:48:36;98457.72;;;5.66;100.00
20156;BME280;10238;49.556;10.956;2023-03-21T05:51:24;98454.47;;;5.74;100.00
20156;BME280;10238;49.556;10.956;2023-03-21T05:54:12;98464.03;;;5.75;100.00
20156;BME280;10238;49.556;10.956;2023-03-21T05:57:02;98461.81;;;5.81;100.00
20156;BME280;10238;49.556;10.956;2023-03-21T05:59:50;98463.69;;;5.79;100.00
20156;BME280;10238;49.556;10.956;2023-03-21T06:02:40;98463.69;;;5.79;100.00
20156;BME280;10238;49.556;10.956;2023-03-21T06:05:27;98474.88;;;5.83;100.00
20156;BME280;10238;49.556;10.956;2023-03-21T06:08:17;98474.38;;;5.89;100.00
20156;BME280;10238;49.556;10.956;2023-03-21T06:11:19;98477.47;;;5.94;100.00
20156;BME280;10238;49.556;10.956;2023-03-21T06:14:09;98474.22;;;6.01;100.00
20156;BME280;10238;49.556;10.956;2023-03-21T06:16:57;98470.97;;;6.09;100.00
20156;BME280;10238;49.556;10.956;2023-03-21T06:19:47;98471.31;;;6.15;100.00
20156;BME280;10238;49.556;10.956;2023-03-21T06:22:35;98471.53;;;6.23;100.00
20156;BME280;10238;49.556;10.956;2023-03-21T06:25:23;98477.97;;;6.30;100.00
20156;BME280;10238;49.556;10.956;2023-03-21T06:28:11;98481.53;;;6.40;100.00
20156;BME280;10238;49.556;10.956;2023-03-21T06:30:59;98476.78;;;6.55;100.00
20156;BME280;10238;49.556;10.956;2023-03-21T06:33:47;98473.53;;;6.62;100.00
20156;BME280;10238;49.556;10.956;2023-03-21T06:36:37;98474.03;;;6.77;100.00
20156;BME280;10238;49.556;10.956;2023-03-21T06:39:25;98478.91;;;6.93;100.00
20156;BME280;10238;49.556;10.956;2023-03-21T06:42:13;98473.09;;;6.99;100.00
20156;BME280;10238;49.556;10.956;2023-03-21T06:45:02;98472.34;;;7.08;100.00
20156;BME280;10238;49.556;10.956;2023-03-21T06:47:49;98475.34;;;7.24;100.00
20156;BME280;10238;49.556;10.956;2023-03-21T06:50:37;98464.88;;;7.43;100.00
20156;BME280;10238;49.556;10.956;2023-03-21T06:53:27;98456.81;;;7.54;100.00
20156;BME280;10238;49.556;10.956;2023-03-21T06:56:15;98463.25;;;7.61;100.00
20156;BME280;10238;49.556;10.956;2023-03-21T06:59:03;98460.66;;;7.70;100.00
20156;BME280;10238;49.556;10.956;2023-03-21T07:01:51;98454.53;;;7.79;100.00
20156;BME280;10238;49.556;10.956;2023-03-21T07:04:39;98461.53;;;7.90;100.00
20156;BME280;10238;49.556;10.956;2023-03-21T07:07:28;98455.44;;;7.99;100.00
20156;BME280;10238;49.556;10.956;2023-03-21T07:10:18;98457.41;;;8.06;100.00
20156;BME280;10238;49.556;10.956;2023-03-21T07:13:06;98450.97;;;8.09;100.00
20156;BME280;10238;49.556;10.956;2023-03-21T07:15:54;98455.19;;;8.21;100.00
20156;BME280;10238;49.556;10.956;2023-03-21T07:18:43;98449.38;;;8.27;100.00
20156;BME280;10238;49.556;10.956;2023-03-21T07:21:30;98450.66;;;8.42;100.00
20156;BME280;10238;49.556;10.956;2023-03-21T07:24:18;98442.16;;;8.48;100.00
20156;BME280;10238;49.556;10.956;2023-03-21T07:27:08;98447.59;;;8.65;100.00
20156;BME280;10238;49.556;10.956;2023-03-21T07:29:56;98444.63;;;8.78;100.00
20156;BME280;10238;49.556;10.956;2023-03-21T07:32:43;98449.09;;;8.87;100.00
20156;BME280;10238;49.556;10.956;2023-03-21T07:35:33;98451.03;;;8.95;100.00
20156;BME280;10238;49.556;10.956;2023-03-21T07:38:23;98451.13;;;9.03;100.00
20156;BME280;10238;49.556;10.956;2023-03-21T07:41:12;98445.97;;;9.11;100.00
20156;BME280;10238;49.556;10.956;2023-03-21T07:44:01;98452.09;;;9.11;100.00
20156;BME280;10238;49.556;10.956;2023-03-21T07:46:49;98451.25;;;9.20;100.00
20156;BME280;10238;49.556;10.956;2023-03-21T07:49:37;98447.03;;;9.27;100.00
20156;BME280;10238;49.556;10.956;2023-03-21T07:52:26;98451.75;;;9.43;100.00
20156;BME280;10238;49.556;10.956;2023-03-21T07:55:14;98441.66;;;9.46;100.00
20156;BME280;10238;49.556;10.956;2023-03-21T07:58:04;98445.81;;;9.58;100.00
20156;BME280;10238;49.556;10.956;2023-03-21T08:00:53;98445.34;;;9.72;100.00
20156;BME280;10238;49.556;10.956;2023-03-21T08:03:42;98436.16;;;9.84;100.00
20156;BME280;10238;49.556;10.956;2023-03-21T08:06:30;98433.84;;;10.08;100.00
20156;BME280;10238;49.556;10.956;2023-03-21T08:09:18;98433.84;;;10.26;100.00
20156;BME280;10238;49.556;10.956;2023-03-21T08:12:07;98429.16;;;10.37;100.00
20156;BME280;10238;49.556;10.956;2023-03-21T08:14:55;98427.94;;;10.49;100.00
20156;BME280;10238;49.556;10.956;2023-03-21T08:17:47;98429.38;;;10.61;100.00
20156;BME280;10238;49.556;10.956;2023-03-21T08:20:35;98415.84;;;10.72;100.00
20156;BME280;10238;49.556;10.956;2023-03-21T08:23:23;98413.91;;;10.82;100.00
20156;BME280;10238;49.556;10.956;2023-03-21T08:26:12;98413.72;;;11.02;100.00
20156;BME280;10238;49.556;10.956;2023-03-21T08:29:04;98419.31;;;11.16;100.00
20156;BME280;10238;49.556;10.956;2023-03-21T08:31:52;98412.25;;;11.33;100.00
20156;BME280;10238;49.556;10.956;2023-03-21T08:34:44;98408.06;;;11.56;100.00
20156;BME280;10238;49.556;10.956;2023-03-21T08:37:32;98403.00;;;11.70;100.00
20156;BME280;10238;49.556;10.956;2023-03-21T08:40:19;98400.06;;;11.89;100.00
20156;BME280;10238;49.556;10.956;2023-03-21T08:43:07;98389.28;;;11.99;100.00
20156;BME280;10238;49.556;10.956;2023-03-21T08:45:55;98389.16;;;12.16;100.00
20156;BME280;10238;49.556;10.956;2023-03-21T08:48:44;98384.00;;;12.31;100.00
20156;BME280;10238;49.556;10.956;2023-03-21T08:51:33;98382.00;;;12.33;100.00
20156;BME280;10238;49.556;10.956;2023-03-21T08:54:23;98377.34;;;12.59;100.00
20156;BME280;10238;49.556;10.956;2023-03-21T08:57:11;98372.69;;;12.69;100.00
20156;BME280;10238;49.556;10.956;2023-03-21T08:59:59;98372.50;;;12.94;100.00
20156;BME280;10238;49.556;10.956;2023-03-21T09:02:48;98370.66;;;13.03;100.00
20156;BME280;10238;49.556;10.956;2023-03-21T09:05:37;98373.34;;;13.11;100.00
20156;BME280;10238;49.556;10.956;2023-03-21T09:08:27;98371.47;;;13.20;100.00
20156;BME280;10238;49.556;10.956;2023-03-21T09:11:15;98372.88;;;13.54;100.00
20156;BME280;10238;49.556;10.956;2023-03-21T09:14:03;98371.81;;;13.71;100.00
20156;BME280;10238;49.556;10.956;2023-03-21T09:16:51;98360.50;;;13.61;100.00
20156;BME280;10238;49.556;10.956;2023-03-21T09:19:39;98361.75;;;13.81;100.00
20156;BME280;10238;49.556;10.956;2023-03-21T09:22:28;98356.56;;;14.10;100.00
20156;BME280;10238;49.556;10.956;2023-03-21T09:25:18;98349.91;;;14.06;100.00
20156;BME280;10238;49.556;10.956;2023-03-21T09:28:07;98351.53;;;14.38;100.00
20156;BME280;10238;49.556;10.956;2023-03-21T09:30:57;98350.66;;;14.45;100.00
20156;BME280;10238;49.556;10.956;2023-03-21T09:33:48;98359.00;;;14.50;100.00
20156;BME280;10238;49.556;10.956;2023-03-21T09:36:36;98360.69;;;15.03;100.00
20156;BME280;10238;49.556;10.956;2023-03-21T09:39:27;98345.19;;;15.28;100.00
20156;BME280;10238;49.556;10.956;2023-03-21T09:42:24;98346.44;;;15.40;100.00
20156;BME280;10238;49.556;10.956;2023-03-21T09:45:19;98345.09;;;15.65;100.00
20156;BME280;10238;49.556;10.956;2023-03-21T09:48:16;98342.50;;;15.86;100.00
20156;BME280;10238;49.556;10.956;2023-03-21T09:51:16;98339.13;;;15.98;100.00
20156;BME280;10238;49.556;10.956;2023-03-21T09:54:07;98338.31;;;16.54;100.00
20156;BME280;10238;49.556;10.956;2023-03-21T09:57:01;98334.50;;;16.28;95.48
20156;BME280;10238;49.556;10.956;2023-03-21T09:59:54;98333.00;;;16.61;99.68
20156;BME280;10238;49.556;10.956;2023-03-21T10:02:44;98322.75;;;17.26;99.73
20156;BME280;10238;49.556;10.956;2023-03-21T10:05:34;98319.75;;;17.76;99.77
20156;BME280;10238;49.556;10.956;2023-03-21T10:08:28;98316.25;;;17.89;88.48
20156;BME280;10238;49.556;10.956;2023-03-21T10:11:22;98303.16;;;17.66;88.85
20156;BME280;10238;49.556;10.956;2023-03-21T10:14:17;98307.75;;;17.79;92.22
20156;BME280;10238;49.556;10.956;2023-03-21T10:17:19;98309.34;;;17.67;88.89
20156;BME280;10238;49.556;10.956;2023-03-21T10:20:15;98308.22;;;17.95;93.22
20156;BME280;10238;49.556;10.956;2023-03-21T10:23:05;98306.53;;;18.74;100.00
20156;BME280;10238;49.556;10.956;2023-03-21T10:25:55;98300.91;;;18.95;97.94
20156;BME280;10238;49.556;10.956;2023-03-21T10:28:45;98286.00;;;18.47;76.12
20156;BME280;10238;49.556;10.956;2023-03-21T10:31:40;98283.31;;;18.53;80.85
20156;BME280;10238;49.556;10.956;2023-03-21T10:34:34;98285.78;;;18.48;80.79
20156;BME280;10238;49.556;10.956;2023-03-21T10:37:24;98282.91;;;18.56;85.23
20156;BME280;10238;49.556;10.956;2023-03-21T10:40:15;98273.75;;;19.09;76.07
20156;BME280;10238;49.556;10.956;2023-03-21T10:43:18;98271.09;;;18.51;79.36
20156;BME280;10238;49.556;10.956;2023-03-21T10:46:10;98274.59;;;18.64;87.80
20156;BME280;10238;49.556;10.956;2023-03-21T10:48:59;98271.50;;;20.08;99.00
20156;BME280;10238;49.556;10.956;2023-03-21T10:51:51;98268.38;;;20.48;100.00
20156;BME280;10238;49.556;10.956;2023-03-21T10:54:39;98263.25;;;21.14;98.82
20156;BME280;10238;49.556;10.956;2023-03-21T10:57:28;98261.66;;;21.43;95.62
20156;BME280;10238;49.556;10.956;2023-03-21T11:00:20;98259.41;;;21.58;96.85
20156;BME280;10238;49.556;10.956;2023-03-21T11:03:13;98255.09;;;20.47;67.26
20156;BME280;10238;49.556;10.956;2023-03-21T11:06:13;98260.97;;;20.00;77.08
20156;BME280;10238;49.556;10.956;2023-03-21T11:09:05;98248.88;;;20.40;77.36
20156;BME280;10238;49.556;10.956;2023-03-21T11:12:02;98248.28;;;20.07;85.40
20156;BME280;10238;49.556;10.956;2023-03-21T11:14:52;98246.38;;;20.45;85.57
20156;BME280;10238;49.556;10.956;2023-03-21T11:17:40;98244.78;;;22.24;99.30
20156;BME280;10238;49.556;10.956;2023-03-21T11:20:29;98252.50;;;21.80;89.99
20156;BME280;10238;49.556;10.956;2023-03-21T11:23:19;98250.34;;;22.70;89.66
20156;BME280;10238;49.556;10.956;2023-03-21T11:26:14;98221.09;;;23.18;89.78
20156;BME280;10238;49.556;10.956;2023-03-21T11:29:19;98224.44;;;24.00;86.27
20156;BME280;10238;49.556;10.956;2023-03-21T11:32:11;98216.41;;;23.02;66.56
20156;BME280;10238;49.556;10.956;2023-03-21T11:35:02;98219.97;;;23.54;81.88
20156;BME280;10238;49.556;10.956;2023-03-21T11:37:53;98214.34;;;23.84;73.72
20156;BME280;10238;49.556;10.956;2023-03-21T11:40:52;98211.53;;;23.79;61.26
20156;BME280;10238;49.556;10.956;2023-03-21T11:43:51;98211.44;;;22.99;69.44
20156;BME280;10238;49.556;10.956;2023-03-21T11:46:40;98207.94;;;24.79;75.50
20156;BME280;10238;49.556;10.956;2023-03-21T11:49:27;98197.75;;;22.94;51.32
20156;BME280;10238;49.556;10.956;2023-03-21T11:52:22;98200.75;;;23.56;67.52
20156;BME280;10238;49.556;10.956;2023-03-21T11:55:35;98192.69;;;24.00;56.36
20156;BME280;10238;49.556;10.956;2023-03-21T11:58:35;98178.44;;;24.71;65.91
20156;BME280;10238;49.556;10.956;2023-03-21T12:01:33;98176.38;;;25.16;72.06
20156;BME280;10238;49.556;10.956;2023-03-21T12:04:39;98179.09;;;25.16;67.10
20156;BME280;10238;49.556;10.956;2023-03-21T12:07:42;98180.16;;;24.60;52.95
20156;BME280;10238;49.556;10.956;2023-03-21T12:10:42;98167.69;;;24.15;71.59
20156;BME280;10238;49.556;10.956;2023-03-21T12:13:40;98160.00;;;25.76;67.13
20156;BME280;10238;49.556;10.956;2023-03-21T12:16:47;98161.91;;;24.61;57.36
20156;BME280;10238;49.556;10.956;2023-03-21T12:19:58;98155.25;;;25.23;67.89
20156;BME280;10238;49.556;10.956;2023-03-21T12:23:03;98152.97;;;24.60;69.57
20156;BME280;10238;49.556;10.956;2023-03-21T12:26:02;98145.41;;;25.60;68.09
20156;BME280;10238;49.556;10.956;2023-03-21T12:29:03;98156.97;;;23.24;51.31
20156;BME280;10238;49.556;10.956;2023-03-21T12:31:58;98143.44;;;25.34;64.02
20156;BME280;10238;49.556;10.956;2023-03-21T12:35:14;98142.44;;;25.67;64.09
20156;BME280;10238;49.556;10.956;2023-03-21T12:38:13;98130.44;;;26.47;61.52
20156;BME280;10238;49.556;10.956;2023-03-21T12:41:17;98123.63;;;26.50;59.70
20156;BME280;10238;49.556;10.956;2023-03-21T12:44:10;98121.41;;;26.78;59.00
20156;BME280;10238;49.556;10.956;2023-03-21T12:47:03;98115.31;;;26.66;60.25
20156;BME280;10238;49.556;10.956;2023-03-21T12:49:59;98117.16;;;26.97;55.78
20156;BME280;10238;49.556;10.956;2023-03-21T12:52:51;98113.06;;;27.00;57.26
20156;BME280;10238;49.556;10.956;2023-03-21T12:55:41;98108.91;;;26.87;58.33
20156;BME280;10238;49.556;10.956;2023-03-21T12:58:30;98121.88;;;26.02;58.87
20156;BME280;10238;49.556;10.956;2023-03-21T13:01:24;98113.69;;;26.34;60.92
20156;BME280;10238;49.556;10.956;2023-03-21T13:04:33;98109.72;;;24.59;63.60
20156;BME280;10238;49.556;10.956;2023-03-21T13:07:23;98094.78;;;25.64;62.69
20156;BME280;10238;49.556;10.956;2023-03-21T13:10:14;98094.56;;;25.44;64.93
20156;BME280;10238;49.556;10.956;2023-03-21T13:13:07;98083.09;;;25.42;63.66
20156;BME280;10238;49.556;10.956;2023-03-21T13:16:03;98087.03;;;25.78;59.52
20156;BME280;10238;49.556;10.956;2023-03-21T13:19:01;98081.16;;;25.64;60.35
20156;BME280;10238;49.556;10.956;2023-03-21T13:21:56;98091.81;;;25.22;62.78
20156;BME280;10238;49.556;10.956;2023-03-21T13:24:49;98086.69;;;24.12;63.83
20156;BME280;10238;49.556;10.956;2023-03-21T13:27:38;98082.16;;;25.32;60.73
20156;BME280;10238;49.556;10.956;2023-03-21T13:30:27;98080.34;;;25.64;60.21
20156;BME280;10238;49.556;10.956;2023-03-21T13:33:20;98078.34;;;25.33;60.90
20156;BME280;10238;49.556;10.956;2023-03-21T13:36:17;98078.38;;;25.59;57.70
20156;BME280;10238;49.556;10.956;2023-03-21T13:39:17;98072.06;;;25.54;59.39
20156;BME280;10238;49.556;10.956;2023-03-21T13:42:16;98077.31;;;23.75;53.50
20156;BME280;10238;49.556;10.956;2023-03-21T13:45:10;98075.97;;;24.55;61.75
20156;BME280;10238;49.556;10.956;2023-03-21T13:48:00;98071.72;;;25.02;63.04
20156;BME280;10238;49.556;10.956;2023-03-21T13:50:52;98066.91;;;25.09;62.00
20156;BME280;10238;49.556;10.956;2023-03-21T13:53:40;98053.81;;;25.06;60.47
20156;BME280;10238;49.556;10.956;2023-03-21T13:56:48;98054.38;;;25.08;61.66
20156;BME280;10238;49.556;10.956;2023-03-21T13:59:42;98055.72;;;25.05;60.23
20156;BME280;10238;49.556;10.956;2023-03-21T14:02:32;98051.28;;;24.99;61.78
20156;BME280;10238;49.556;10.956;2023-03-21T14:05:24;98044.59;;;24.85;60.71
20156;BME280;10238;49.556;10.956;2023-03-21T14:08:16;98046.91;;;24.39;59.43
20156;BME280;10238;49.556;10.956;2023-03-21T14:11:21;98043.88;;;23.86;49.31
20156;BME280;10238;49.556;10.956;2023-03-21T14:14:11;98042.38;;;24.28;63.80
20156;BME280;10238;49.556;10.956;2023-03-21T14:16:59;98039.06;;;24.42;62.95
20156;BME280;10238;49.556;10.956;2023-03-21T14:19:51;98036.78;;;24.34;61.72
20156;BME280;10238;49.556;10.956;2023-03-21T14:22:39;98037.16;;;24.21;60.86
20156;BME280;10238;49.556;10.956;2023-03-21T14:25:32;98036.06;;;24.06;59.30
20156;BME280;10238;49.556;10.956;2023-03-21T14:28:33;98037.13;;;23.88;60.88
20156;BME280;10238;49.556;10.956;2023-03-21T14:31:23;98031.28;;;23.80;59.91
20156;BME280;10238;49.556;10.956;2023-03-21T14:34:14;98028.56;;;23.80;62.35
20156;BME280;10238;49.556;10.956;2023-03-21T14:37:06;98021.34;;;23.69;61.64
20156;BME280;10238;49.556;10.956;2023-03-21T14:39:58;98020.09;;;23.60;62.04
20156;BME280;10238;49.556;10.956;2023-03-21T14:42:48;98020.97;;;23.49;62.60
20156;BME280;10238;49.556;10.956;2023-03-21T14:45:36;98021.28;;;23.36;62.28
20156;BME280;10238;49.556;10.956;2023-03-21T14:48:31;98021.91;;;23.26;61.46
20156;BME280;10238;49.556;10.956;2023-03-21T14:51:19;98025.13;;;23.11;62.77
20156;BME280;10238;49.556;10.956;2023-03-21T14:54:12;98015.50;;;23.04;62.67
20156;BME280;10238;49.556;10.956;2023-03-21T14:57:06;98015.19;;;22.89;61.94
20156;BME280;10238;49.556;10.956;2023-03-21T14:59:57;98014.84;;;22.85;63.64